createdAt,value
2022-10-19T00:01:25.401Z,49.61
2022-10-19T00:03:55.929Z,49.54
2022-10-19T00:06:27.863Z,49.54
2022-10-19T00:08:58.976Z,49.68
2022-10-19T00:11:29.838Z,49.53
2022-10-19T00:13:59.980Z,49.22
2022-10-19T00:16:30.840Z,49.36
2022-10-19T00:19:00.680Z,49.05
2022-10-19T00:21:29.597Z,49.18
2022-10-19T00:23:57.992Z,48.68
2022-10-19T00:26:28.167Z,48.54
2022-10-19T00:28:57.771Z,48.82
2022-10-19T00:31:27.083Z,48.89
2022-10-19T00:33:58.831Z,48.50
2022-10-19T00:36:29.376Z,48.49
2022-10-19T00:38:58.839Z,48.77
2022-10-19T00:41:31.501Z,48.70
2022-10-19T00:44:03.054Z,48.56
2022-10-19T00:46:33.839Z,48.25
2022-10-19T00:49:08.405Z,48.26
2022-10-19T00:51:43.153Z,48.47
2022-10-19T00:54:12.653Z,48.31
2022-10-19T00:56:44.721Z,48.59
2022-10-19T00:59:16.093Z,48.19
2022-10-19T01:01:46.021Z,48.39
2022-10-19T01:04:15.063Z,48.86
2022-10-19T01:06:44.059Z,48.48
2022-10-19T01:09:12.545Z,48.60
2022-10-19T01:11:53.819Z,48.68
2022-10-19T01:14:37.652Z,48.59
2022-10-19T01:17:17.852Z,48.53
2022-10-19T01:20:31.661Z,48.75
2022-10-19T01:23:31.814Z,48.79
2022-10-19T01:26:14.823Z,48.38
2022-10-19T01:29:03.925Z,48.44
2022-10-19T01:31:42.986Z,48.09
2022-10-19T01:34:19.001Z,48.26
2022-10-19T01:36:59.006Z,48.20
2022-10-19T01:39:39.761Z,48.16
2022-10-19T01:42:15.930Z,47.75
2022-10-19T01:44:51.705Z,48.02
2022-10-19T01:47:27.427Z,47.94
2022-10-19T01:50:03.317Z,47.77
2022-10-19T01:52:33.447Z,47.90
2022-10-19T01:55:04.541Z,47.57
2022-10-19T01:57:49.453Z,47.67
2022-10-19T02:00:18.719Z,47.43
2022-10-19T02:02:52.150Z,47.70
2022-10-19T02:05:32.328Z,47.72
2022-10-19T02:08:05.671Z,47.29
2022-10-19T02:10:38.706Z,47.63
2022-10-19T02:13:09.092Z,47.33
2022-10-19T02:15:42.057Z,47.45
2022-10-19T02:18:13.864Z,47.53
2022-10-19T02:20:42.298Z,47.52
2022-10-19T02:23:11.068Z,47.53
2022-10-19T02:25:39.507Z,47.79
2022-10-19T02:28:07.934Z,47.73
2022-10-19T02:30:36.398Z,47.96
2022-10-19T02:33:04.927Z,48.08
2022-10-19T02:35:34.954Z,48.07
2022-10-19T02:38:05.688Z,48.22
2022-10-19T02:40:40.889Z,48.67
2022-10-19T02:43:15.181Z,48.41
2022-10-19T02:45:51.199Z,48.78
2022-10-19T02:48:25.743Z,48.51
2022-10-19T02:50:55.467Z,48.52
2022-10-19T02:53:23.832Z,48.74
2022-10-19T02:55:53.487Z,48.56
2022-10-19T02:58:21.867Z,48.98
2022-10-19T03:00:50.323Z,49.04
2022-10-19T03:03:18.813Z,49.13
2022-10-19T03:05:47.167Z,48.93
2022-10-19T03:08:16.930Z,48.93
2022-10-19T03:10:45.251Z,49.02
2022-10-19T03:13:13.590Z,48.92
2022-10-19T03:15:41.981Z,49.22
2022-10-19T03:18:10.332Z,49.13
2022-10-19T03:20:38.654Z,49.25
2022-10-19T03:23:06.986Z,49.22
2022-10-19T03:25:36.729Z,49.13
2022-10-19T03:28:05.154Z,49.41
2022-10-19T03:30:33.571Z,49.47
2022-10-19T03:33:01.887Z,49.33
2022-10-19T03:35:30.345Z,49.45
2022-10-19T03:37:58.641Z,49.36
2022-10-19T03:40:27.064Z,49.53
2022-10-19T03:42:56.771Z,49.38
2022-10-19T03:45:25.297Z,49.43
2022-10-19T03:47:53.876Z,49.57
2022-10-19T03:50:22.272Z,49.38
2022-10-19T03:52:50.798Z,49.37
2022-10-19T03:55:19.563Z,49.40
2022-10-19T03:57:47.907Z,49.47
2022-10-19T04:00:18.063Z,49.40
2022-10-19T04:02:46.411Z,49.46
2022-10-19T04:05:15.010Z,49.51
2022-10-19T04:07:43.359Z,49.53
2022-10-19T04:10:11.740Z,49.57
2022-10-19T04:12:40.088Z,49.46
2022-10-19T04:15:10.406Z,49.65
2022-10-19T04:17:40.106Z,49.70
2022-10-19T04:20:10.172Z,49.55
2022-10-19T04:22:38.536Z,49.52
2022-10-19T04:25:11.282Z,49.53
2022-10-19T04:27:39.777Z,49.48
2022-10-19T04:30:09.644Z,49.61
2022-10-19T04:32:39.401Z,49.57
2022-10-19T04:35:09.209Z,49.67
2022-10-19T04:37:37.572Z,49.68
2022-10-19T04:40:11.531Z,49.88
2022-10-19T04:42:43.170Z,49.96
2022-10-19T04:45:12.552Z,50.00
2022-10-19T04:47:42.275Z,49.91
2022-10-19T04:50:11.344Z,49.91
2022-10-19T04:52:39.717Z,49.89
2022-10-19T04:55:09.193Z,50.11
2022-10-19T04:57:37.536Z,50.08
2022-10-19T05:00:07.821Z,50.11
2022-10-19T05:02:36.195Z,50.07
2022-10-19T05:05:07.306Z,50.08
2022-10-19T05:07:35.872Z,49.96
2022-10-19T05:10:04.954Z,50.08
2022-10-19T05:12:33.403Z,50.19
2022-10-19T05:15:01.748Z,50.31
2022-10-19T05:17:32.075Z,50.31
2022-10-19T05:20:00.703Z,50.54
2022-10-19T05:22:30.515Z,50.52
2022-10-19T05:24:58.874Z,50.65
2022-10-19T05:27:27.264Z,50.87
2022-10-19T05:29:55.628Z,50.76
2022-10-19T05:32:23.976Z,50.67
2022-10-19T05:34:52.309Z,50.74
2022-10-19T05:37:21.714Z,50.80
2022-10-19T05:39:51.494Z,50.61
2022-10-19T05:42:19.851Z,50.83
2022-10-19T05:44:48.238Z,50.79
2022-10-19T05:47:16.664Z,50.77
2022-10-19T05:49:45.029Z,50.89
2022-10-19T05:52:13.870Z,50.82
2022-10-19T05:54:42.247Z,50.94
2022-10-19T05:57:11.998Z,50.99
2022-10-19T05:59:40.422Z,51.05
2022-10-19T06:02:14.159Z,51.10
2022-10-19T06:04:42.647Z,51.12
2022-10-19T06:07:11.011Z,51.19
2022-10-19T06:09:39.407Z,51.15
2022-10-19T06:12:07.944Z,51.21
2022-10-19T06:14:37.781Z,51.28
2022-10-19T06:17:06.763Z,51.18
2022-10-19T06:19:35.145Z,51.29
2022-10-19T06:22:03.622Z,51.22
2022-10-19T06:24:32.292Z,51.17
2022-10-19T06:27:00.628Z,51.15
2022-10-19T06:29:29.089Z,51.13
2022-10-19T06:32:00.296Z,50.98
2022-10-19T06:34:28.690Z,51.07
2022-10-19T06:36:57.116Z,51.07
2022-10-19T06:39:25.511Z,51.07
2022-10-19T06:41:53.854Z,51.01
2022-10-19T06:44:22.636Z,50.95
2022-10-19T06:46:51.038Z,50.88
2022-10-19T06:49:20.970Z,50.83
2022-10-19T06:51:49.324Z,50.87
2022-10-19T06:54:17.694Z,50.71
2022-10-19T06:56:46.115Z,50.67
2022-10-19T06:59:14.987Z,50.60
2022-10-19T07:01:43.599Z,50.57
2022-10-19T07:04:12.086Z,50.38
2022-10-19T07:06:41.917Z,50.26
2022-10-19T07:09:10.379Z,50.20
2022-10-19T07:11:45.522Z,50.15
2022-10-19T07:14:14.444Z,50.04
2022-10-19T07:16:42.826Z,49.83
2022-10-19T07:19:11.746Z,49.80
2022-10-19T07:21:43.065Z,49.60
2022-10-19T07:24:11.531Z,49.49
2022-10-19T07:26:39.935Z,49.00
2022-10-19T07:29:08.460Z,49.01
2022-10-19T07:31:36.907Z,48.88
2022-10-19T07:34:07.047Z,48.60
2022-10-19T07:36:37.060Z,48.31
2022-10-19T07:39:08.764Z,47.98
2022-10-19T07:41:37.276Z,47.89
2022-10-19T07:44:06.597Z,48.00
2022-10-19T07:46:37.247Z,47.99
2022-10-19T07:49:09.817Z,47.31
2022-10-19T07:51:39.258Z,47.18
2022-10-19T07:54:09.179Z,46.87
2022-10-19T07:56:38.055Z,46.69
2022-10-19T07:59:06.539Z,46.53
2022-10-19T08:01:40.953Z,46.20
2022-10-19T08:06:58.073Z,45.78
2022-10-19T08:09:51.504Z,45.61
2022-10-19T08:12:16.609Z,45.64
2022-10-19T08:14:45.015Z,45.04
2022-10-19T08:17:17.472Z,44.66
2022-10-19T08:19:46.303Z,44.19
2022-10-19T08:22:14.879Z,44.02
2022-10-19T08:24:44.649Z,44.18
2022-10-19T08:27:14.873Z,43.67
2022-10-19T08:29:43.272Z,43.73
2022-10-19T08:32:11.692Z,43.70
2022-10-19T08:34:40.283Z,43.27
2022-10-19T08:37:19.832Z,43.01
2022-10-19T08:39:58.583Z,42.87
2022-10-19T08:42:35.315Z,43.30
2022-10-19T08:45:42.631Z,43.23
2022-10-19T08:48:28.604Z,43.16
2022-10-19T08:50:59.617Z,42.41
2022-10-19T08:53:38.774Z,42.30
2022-10-19T08:59:41.624Z,42.70
2022-10-19T09:02:19.854Z,42.12
2022-10-19T09:04:57.197Z,42.17
2022-10-19T09:07:29.243Z,41.69
2022-10-19T09:10:02.410Z,41.38
2022-10-19T09:12:43.518Z,41.56
2022-10-19T09:15:17.432Z,41.29
2022-10-19T09:17:45.941Z,41.09
2022-10-19T09:20:21.715Z,41.12
2022-10-19T09:22:58.669Z,40.53
2022-10-19T09:25:29.248Z,40.85
2022-10-19T09:28:17.673Z,41.00
2022-10-19T09:30:48.813Z,40.74
2022-10-19T09:33:25.819Z,40.76
2022-10-19T09:35:58.361Z,40.68
2022-10-19T09:38:29.766Z,40.56
2022-10-19T09:40:59.392Z,40.71
2022-10-19T09:43:30.439Z,40.87
2022-10-19T09:46:13.995Z,41.12
2022-10-19T09:48:51.563Z,41.29
2022-10-19T09:51:21.872Z,41.08
2022-10-19T09:53:54.931Z,41.41
2022-10-19T09:56:26.080Z,41.31
2022-10-19T09:58:58.802Z,41.27
2022-10-19T10:01:41.504Z,41.10
2022-10-19T10:04:17.219Z,41.11
2022-10-19T10:06:49.092Z,40.84
2022-10-19T10:09:19.899Z,40.75
2022-10-19T10:11:51.611Z,40.11
2022-10-19T10:14:28.647Z,40.15
2022-10-19T10:16:58.436Z,40.39
2022-10-19T10:19:31.419Z,40.38
2022-10-19T10:22:01.270Z,40.07
2022-10-19T10:24:31.958Z,40.26
2022-10-19T10:27:02.844Z,40.06
2022-10-19T10:29:34.935Z,40.05
2022-10-19T10:32:09.006Z,39.62
2022-10-19T10:34:58.523Z,39.24
2022-10-19T10:37:36.741Z,38.73
2022-10-19T10:40:08.967Z,37.88
2022-10-19T10:42:43.397Z,37.62
2022-10-19T10:45:21.692Z,37.48
2022-10-19T10:47:50.478Z,37.26
2022-10-19T10:50:23.931Z,37.17
2022-10-19T10:53:02.460Z,36.64
2022-10-19T10:55:32.641Z,37.08
2022-10-19T10:58:16.699Z,36.59
2022-10-19T11:00:48.794Z,36.16
2022-10-19T11:03:23.919Z,35.19
2022-10-19T11:05:58.108Z,34.88
2022-10-19T11:08:33.108Z,35.23
2022-10-19T11:11:14.064Z,34.42
2022-10-19T11:13:48.872Z,33.99
2022-10-19T11:16:20.902Z,33.83
2022-10-19T11:18:54.764Z,33.57
2022-10-19T11:21:32.221Z,33.32
2022-10-19T11:24:11.411Z,32.81
2022-10-19T11:27:03.032Z,32.25
2022-10-19T11:30:03.304Z,31.95
2022-10-19T11:32:51.100Z,31.57
2022-10-19T11:35:40.924Z,31.26
2022-10-19T11:38:49.589Z,31.72
2022-10-19T11:41:30.179Z,31.60
2022-10-19T11:44:13.763Z,30.80
2022-10-19T11:46:56.728Z,30.30
2022-10-19T11:49:44.103Z,29.80
2022-10-19T11:52:18.571Z,29.21
2022-10-19T11:55:04.144Z,27.91
2022-10-19T11:57:40.205Z,25.57
2022-10-19T12:00:15.128Z,25.31
2022-10-19T12:03:28.231Z,26.09
2022-10-19T12:06:11.022Z,25.62
2022-10-19T12:09:02.410Z,25.24
2022-10-19T12:11:54.461Z,24.92
2022-10-19T12:14:27.717Z,25.06
2022-10-19T12:17:01.217Z,24.32
2022-10-19T12:19:37.689Z,24.05
2022-10-19T12:22:13.961Z,22.52
2022-10-19T12:24:42.422Z,22.85
2022-10-19T12:27:14.987Z,22.14
2022-10-19T12:29:48.539Z,21.87
2022-10-19T12:32:20.991Z,21.18
2022-10-19T12:35:00.397Z,21.42
2022-10-19T12:37:37.298Z,21.50
2022-10-19T12:40:13.419Z,21.42
2022-10-19T12:42:51.936Z,21.22
2022-10-19T12:45:32.381Z,21.43
2022-10-19T12:48:24.699Z,22.24
2022-10-19T12:51:20.149Z,22.88
2022-10-19T12:53:50.899Z,22.00
2022-10-19T12:56:25.241Z,21.86
2022-10-19T12:58:59.827Z,22.82
2022-10-19T13:01:43.948Z,23.24
2022-10-19T13:04:14.989Z,23.73
2022-10-19T13:06:46.243Z,24.04
2022-10-19T13:09:28.177Z,23.75
2022-10-19T13:12:30.431Z,23.89
2022-10-19T13:15:00.196Z,23.73
2022-10-19T13:17:46.293Z,24.09
2022-10-19T13:20:52.983Z,24.39
2022-10-19T13:23:42.193Z,24.54
2022-10-19T13:26:35.573Z,25.20
2022-10-19T13:29:04.027Z,26.01
2022-10-19T13:31:34.134Z,26.59
2022-10-19T13:34:10.764Z,27.06
2022-10-19T13:36:40.358Z,27.63
2022-10-19T13:39:18.572Z,28.22
2022-10-19T13:41:54.581Z,28.59
2022-10-19T13:44:28.305Z,29.04
2022-10-19T13:50:39.520Z,29.37
2022-10-19T13:53:39.915Z,29.83
2022-10-19T13:56:43.598Z,30.26
2022-10-19T14:00:00.309Z,30.37
2022-10-19T14:03:20.691Z,30.75
2022-10-19T14:06:28.494Z,30.79
2022-10-19T14:09:42.830Z,31.07
2022-10-19T14:12:22.416Z,31.34
2022-10-19T14:14:53.752Z,31.78
2022-10-19T14:17:25.656Z,31.63
2022-10-19T14:19:57.191Z,31.80
2022-10-19T14:22:31.019Z,31.95
2022-10-19T14:25:06.527Z,31.98
2022-10-19T14:27:36.041Z,32.00
2022-10-19T14:30:08.080Z,32.28
2022-10-19T14:32:36.839Z,32.24
2022-10-19T14:35:19.075Z,32.06
2022-10-19T14:37:47.533Z,32.31
2022-10-19T14:40:35.138Z,32.46
2022-10-19T14:43:03.564Z,32.37
2022-10-19T14:45:34.271Z,32.53
2022-10-19T14:48:04.993Z,32.80
2022-10-19T14:50:43.960Z,32.79
2022-10-19T14:53:34.567Z,32.77
2022-10-19T14:56:09.164Z,32.84
2022-10-19T14:58:45.402Z,32.89
2022-10-19T15:01:17.481Z,33.26
2022-10-19T15:03:47.381Z,33.25
2022-10-19T15:06:22.823Z,33.31
2022-10-19T15:08:55.140Z,33.65
2022-10-19T15:11:29.738Z,33.49
2022-10-19T15:14:07.270Z,33.83
2022-10-19T15:16:53.380Z,33.87
2022-10-19T15:19:28.881Z,33.75
2022-10-19T15:22:21.801Z,34.02
2022-10-19T15:25:02.959Z,34.08
2022-10-19T15:27:34.616Z,34.05
2022-10-19T15:30:07.736Z,33.98
2022-10-19T15:32:39.397Z,34.20
2022-10-19T15:35:13.912Z,34.04
2022-10-19T15:37:45.731Z,34.17
2022-10-19T15:40:21.265Z,34.03
2022-10-19T15:42:49.901Z,34.31
2022-10-19T15:45:36.664Z,33.85
2022-10-19T15:48:29.837Z,34.03
2022-10-19T15:50:59.218Z,34.14
2022-10-19T15:53:28.005Z,33.93
2022-10-19T15:55:56.714Z,34.10
2022-10-19T15:58:25.325Z,33.99
2022-10-19T16:00:53.882Z,34.12
2022-10-19T16:03:24.213Z,34.08
2022-10-19T16:05:53.029Z,34.08
2022-10-19T16:08:21.527Z,34.10
2022-10-19T16:10:50.383Z,34.18
2022-10-19T16:13:19.090Z,34.22
2022-10-19T16:15:53.349Z,34.36
2022-10-19T16:18:31.928Z,34.33
2022-10-19T16:21:00.816Z,34.34
2022-10-19T16:23:31.176Z,34.53
2022-10-19T16:25:59.723Z,34.50
2022-10-19T16:28:29.602Z,34.55
2022-10-19T16:30:58.465Z,34.70
2022-10-19T16:33:27.131Z,34.68
2022-10-19T16:35:56.882Z,34.87
2022-10-19T16:38:25.659Z,34.77
2022-10-19T16:40:54.506Z,34.88
2022-10-19T16:43:23.825Z,34.92
2022-10-19T16:45:52.889Z,34.93
2022-10-19T16:48:24.055Z,34.95
2022-10-19T16:51:38.281Z,35.08
2022-10-19T16:54:09.717Z,35.17
2022-10-19T16:56:43.408Z,35.09
2022-10-19T16:59:15.305Z,35.21
2022-10-19T17:01:46.674Z,35.28
2022-10-19T17:04:18.467Z,35.25
2022-10-19T17:06:49.153Z,35.45
2022-10-19T17:12:08.735Z,35.30
2022-10-19T17:14:38.900Z,35.50
2022-10-19T17:17:08.399Z,35.57
2022-10-19T17:19:38.286Z,35.53
2022-10-19T17:22:09.533Z,35.37
2022-10-19T17:24:39.585Z,35.38
2022-10-19T17:27:10.851Z,35.33
2022-10-19T17:29:42.023Z,35.33
2022-10-19T17:32:12.959Z,35.24
2022-10-19T17:34:43.020Z,35.01
2022-10-19T17:37:16.507Z,35.24
2022-10-19T17:39:47.069Z,35.20
2022-10-19T17:42:18.132Z,35.07
2022-10-19T17:44:50.719Z,35.11
2022-10-19T17:47:21.078Z,34.98
2022-10-19T17:49:51.351Z,35.09
2022-10-19T17:52:25.580Z,34.99
2022-10-19T17:57:45.421Z,34.93
2022-10-19T18:00:17.221Z,34.92
2022-10-19T18:02:48.081Z,34.86
2022-10-19T18:05:23.292Z,34.81
2022-10-19T18:07:55.220Z,34.84
2022-10-19T18:10:24.902Z,34.84
2022-10-19T18:12:55.715Z,34.81
2022-10-19T18:15:25.469Z,34.81
2022-10-19T18:17:56.024Z,34.65
2022-10-19T18:20:27.398Z,34.65
2022-10-19T18:23:01.284Z,34.74
2022-10-19T18:25:49.742Z,34.48
2022-10-19T18:28:23.214Z,34.59
2022-10-19T18:30:53.399Z,34.56
2022-10-19T18:33:24.000Z,34.53
2022-10-19T18:35:54.542Z,34.49
2022-10-19T18:38:26.393Z,34.42
2022-10-19T18:40:57.220Z,34.60
2022-10-19T18:43:30.567Z,34.37
2022-10-19T18:46:04.737Z,34.43
2022-10-19T18:48:36.901Z,34.26
2022-10-19T18:51:10.060Z,34.21
2022-10-19T18:53:41.896Z,34.29
2022-10-19T18:56:14.707Z,34.24
2022-10-19T18:58:46.945Z,34.34
2022-10-19T19:01:19.811Z,34.22
2022-10-19T19:03:52.795Z,34.23
2022-10-19T19:06:25.946Z,34.21
2022-10-19T19:09:00.114Z,34.35
2022-10-19T19:11:35.944Z,34.25
2022-10-19T19:14:09.560Z,34.24
2022-10-19T19:16:41.618Z,34.33
2022-10-19T19:19:13.000Z,34.26
2022-10-19T19:21:45.684Z,34.31
2022-10-19T19:24:20.549Z,34.44
2022-10-19T19:26:57.217Z,34.47
2022-10-19T19:29:31.018Z,34.54
2022-10-19T19:32:01.982Z,34.70
2022-10-19T19:34:33.444Z,34.63
2022-10-19T19:37:07.400Z,34.77
2022-10-19T19:39:42.922Z,34.80
2022-10-19T19:42:13.160Z,34.83
2022-10-19T19:44:42.809Z,34.83
2022-10-19T19:47:14.933Z,35.01
2022-10-19T19:49:46.957Z,34.96
2022-10-19T19:52:17.379Z,35.23
2022-10-19T19:54:51.792Z,35.04
2022-10-19T19:57:23.061Z,35.21
2022-10-19T19:59:53.318Z,35.27
2022-10-19T20:02:23.386Z,35.25
2022-10-19T20:04:55.216Z,35.44
2022-10-19T20:07:27.393Z,35.36
2022-10-19T20:10:00.257Z,35.45
2022-10-19T20:12:30.105Z,35.41
2022-10-19T20:14:59.792Z,35.56
2022-10-19T20:17:29.470Z,35.58
2022-10-19T20:20:00.407Z,35.76
2022-10-19T20:22:30.689Z,35.84
2022-10-19T20:25:01.315Z,35.75
2022-10-19T20:27:31.376Z,35.99
2022-10-19T20:30:00.960Z,35.95
2022-10-19T20:32:30.667Z,36.13
2022-10-19T20:35:00.180Z,36.14
2022-10-19T20:37:31.692Z,36.26
2022-10-19T20:40:07.465Z,36.34
2022-10-19T20:42:38.150Z,36.33
2022-10-19T20:45:09.413Z,36.58
2022-10-19T20:47:39.059Z,36.43
2022-10-19T20:50:09.584Z,36.89
2022-10-19T20:52:38.585Z,36.63
2022-10-19T20:55:09.880Z,36.88
2022-10-19T20:57:38.843Z,36.86
2022-10-19T21:00:09.330Z,36.92
2022-10-19T21:02:38.124Z,37.06
2022-10-19T21:05:09.190Z,37.18
2022-10-19T21:07:37.709Z,37.32
2022-10-19T21:10:08.996Z,37.34
2022-10-19T21:12:37.856Z,37.36
2022-10-19T21:15:07.702Z,37.43
2022-10-19T21:17:36.055Z,37.34
2022-10-19T21:20:04.658Z,37.54
2022-10-19T21:22:39.145Z,37.69
2022-10-19T21:25:11.591Z,37.80
2022-10-19T21:27:39.989Z,37.84
2022-10-19T21:30:10.128Z,37.86
2022-10-19T21:32:38.519Z,38.06
2022-10-19T21:35:07.767Z,38.09
2022-10-19T21:37:36.361Z,38.22
2022-10-19T21:40:05.325Z,37.95
2022-10-19T21:42:35.108Z,38.13
2022-10-19T21:45:25.298Z,38.13
2022-10-19T21:47:51.888Z,38.16
2022-10-19T21:50:20.267Z,38.31
2022-10-19T21:52:48.619Z,38.42
2022-10-19T21:55:17.277Z,38.49
2022-10-19T21:57:47.675Z,38.43
2022-10-19T22:00:16.141Z,38.56
2022-10-19T22:02:44.489Z,38.58
2022-10-19T22:05:13.051Z,38.82
2022-10-19T22:07:41.430Z,38.88
2022-10-19T22:10:10.812Z,38.98
2022-10-19T22:12:39.252Z,39.16
2022-10-19T22:15:11.012Z,39.42
2022-10-19T22:17:39.385Z,39.52
2022-10-19T22:20:09.551Z,39.19
2022-10-19T22:22:38.203Z,39.10
2022-10-19T22:25:07.724Z,39.08
2022-10-19T22:27:36.098Z,39.39
2022-10-19T22:30:04.729Z,39.38
2022-10-19T22:32:34.910Z,39.49
2022-10-19T22:35:03.536Z,39.61
2022-10-19T22:37:31.946Z,39.63
2022-10-19T22:40:00.334Z,39.80
2022-10-19T22:42:28.745Z,39.66
2022-10-19T22:44:57.135Z,40.00
2022-10-19T22:47:25.623Z,39.84
2022-10-19T22:49:55.487Z,40.01
2022-10-19T22:52:23.915Z,39.94
2022-10-19T22:54:52.338Z,39.90
2022-10-19T22:57:20.753Z,39.88
2022-10-19T22:59:49.166Z,39.80
2022-10-19T23:02:17.596Z,39.84
2022-10-19T23:04:46.019Z,39.78
2022-10-19T23:07:15.799Z,39.99
2022-10-19T23:09:44.252Z,39.83
2022-10-19T23:12:12.668Z,39.91
2022-10-19T23:14:41.096Z,40.05
2022-10-19T23:17:09.497Z,40.07
2022-10-19T23:19:37.905Z,39.93
2022-10-19T23:22:06.232Z,40.24
2022-10-19T23:24:36.056Z,40.10
2022-10-19T23:27:04.743Z,40.28
2022-10-19T23:29:33.188Z,40.24
2022-10-19T23:32:01.704Z,40.31
2022-10-19T23:34:30.180Z,40.46
2022-10-19T23:36:58.568Z,40.40
2022-10-19T23:39:27.048Z,40.31
2022-10-19T23:41:56.793Z,40.31
2022-10-19T23:44:25.145Z,40.40
2022-10-19T23:46:53.495Z,40.52
2022-10-19T23:49:21.876Z,40.36
2022-10-19T23:51:50.233Z,40.58
2022-10-19T23:54:18.588Z,40.65
2022-10-19T23:56:47.001Z,40.75
2022-10-19T23:59:16.755Z,40.86
